createdAt,value
2022-08-14T00:04:34.717Z,99.90
2022-08-14T00:07:22.792Z,99.90
2022-08-14T00:10:52.829Z,99.90
2022-08-14T00:13:21.803Z,99.90
2022-08-14T00:16:14.050Z,99.90
2022-08-14T00:19:21.505Z,99.90
2022-08-14T00:22:08.480Z,99.90
2022-08-14T00:24:56.474Z,99.90
2022-08-14T00:27:43.999Z,99.90
2022-08-14T00:30:36.498Z,99.90
2022-08-14T00:33:50.868Z,99.90
2022-08-14T00:36:49.575Z,99.90
2022-08-14T00:39:36.272Z,99.90
2022-08-14T00:42:55.057Z,99.90
2022-08-14T00:45:30.523Z,99.90
2022-08-14T00:48:34.645Z,99.90
2022-08-14T00:51:24.518Z,99.90
2022-08-14T00:54:22.185Z,99.90
2022-08-14T00:57:08.945Z,99.90
2022-08-14T00:59:56.424Z,99.90
2022-08-14T01:02:45.185Z,99.90
2022-08-14T01:05:50.885Z,99.90
2022-08-14T01:08:51.538Z,99.90
2022-08-14T01:11:45.493Z,99.90
2022-08-14T01:14:52.003Z,99.90
2022-08-14T01:18:07.183Z,99.90
2022-08-14T01:21:06.362Z,99.90
2022-08-14T01:23:55.204Z,99.90
2022-08-14T01:26:50.568Z,99.90
2022-08-14T01:29:58.436Z,99.90
2022-08-14T01:32:44.379Z,99.90
2022-08-14T01:36:03.081Z,99.90
2022-08-14T01:38:39.504Z,99.90
2022-08-14T01:41:32.538Z,99.90
2022-08-14T01:44:32.746Z,99.90
2022-08-14T01:47:22.256Z,99.90
2022-08-14T01:50:10.338Z,99.90
2022-08-14T01:52:59.745Z,99.90
2022-08-14T01:55:51.471Z,99.90
2022-08-14T01:58:57.905Z,99.90
2022-08-14T02:01:51.288Z,99.90
2022-08-14T02:04:55.800Z,99.90
2022-08-14T02:08:09.077Z,99.90
2022-08-14T02:11:15.760Z,99.90
2022-08-14T02:14:07.916Z,99.90
2022-08-14T02:16:57.250Z,99.90
2022-08-14T02:19:43.497Z,99.90
2022-08-14T02:22:33.383Z,99.90
2022-08-14T02:25:20.552Z,99.90
2022-08-14T02:28:25.153Z,99.90
2022-08-14T02:31:15.429Z,99.90
2022-08-14T02:34:04.251Z,99.90
2022-08-14T02:37:06.670Z,99.90
2022-08-14T02:39:53.380Z,99.90
2022-08-14T02:42:40.217Z,99.90
2022-08-14T02:45:45.172Z,99.90
2022-08-14T02:49:03.908Z,99.90
2022-08-14T02:51:42.733Z,99.90
2022-08-14T02:54:29.514Z,99.90
2022-08-14T02:57:40.728Z,99.90
2022-08-14T03:00:23.644Z,99.90
2022-08-14T03:03:11.632Z,99.90
2022-08-14T03:05:59.091Z,99.90
2022-08-14T03:08:46.666Z,99.90
2022-08-14T03:11:34.669Z,99.90
2022-08-14T03:14:27.538Z,99.90
2022-08-14T03:17:15.161Z,99.90
2022-08-14T03:20:06.708Z,99.90
2022-08-14T03:23:02.959Z,99.90
2022-08-14T03:25:50.725Z,99.90
2022-08-14T03:28:40.351Z,99.90
2022-08-14T03:31:29.296Z,99.90
2022-08-14T03:34:24.613Z,99.90
2022-08-14T03:37:38.963Z,99.90
2022-08-14T03:40:30.858Z,99.90
2022-08-14T03:43:17.374Z,99.90
2022-08-14T03:46:04.399Z,99.90
2022-08-14T03:49:12.790Z,99.90
2022-08-14T03:52:17.731Z,99.90
2022-08-14T03:55:13.273Z,99.90
2022-08-14T03:58:01.401Z,99.90
2022-08-14T04:00:47.863Z,99.90
2022-08-14T04:03:34.547Z,99.90
2022-08-14T04:06:28.384Z,99.90
2022-08-14T04:09:18.434Z,99.90
2022-08-14T04:12:08.397Z,99.90
2022-08-14T04:15:01.497Z,99.90
2022-08-14T04:17:48.533Z,99.90
2022-08-14T04:20:34.760Z,99.90
2022-08-14T04:23:39.729Z,99.90
2022-08-14T04:26:42.895Z,99.90
2022-08-14T04:29:30.007Z,99.90
2022-08-14T04:33:01.947Z,99.90
2022-08-14T04:35:55.440Z,99.90
2022-08-14T04:38:53.779Z,99.90
2022-08-14T04:41:57.568Z,99.90
2022-08-14T04:44:44.180Z,99.90
2022-08-14T04:47:56.528Z,99.90
2022-08-14T04:50:49.138Z,99.90
2022-08-14T04:53:44.517Z,99.90
2022-08-14T04:56:34.563Z,99.90
2022-08-14T04:59:21.631Z,99.90
2022-08-14T05:02:08.205Z,99.90
2022-08-14T05:04:58.497Z,99.90
2022-08-14T05:07:53.962Z,99.90
2022-08-14T05:10:51.881Z,99.90
2022-08-14T05:14:16.080Z,99.90
2022-08-14T05:16:47.343Z,99.90
2022-08-14T05:19:33.946Z,99.90
2022-08-14T05:22:32.429Z,99.90
2022-08-14T05:25:20.041Z,99.90
2022-08-14T05:28:14.189Z,99.90
2022-08-14T05:31:07.193Z,99.90
2022-08-14T05:33:56.395Z,99.90
2022-08-14T05:36:43.589Z,99.90
2022-08-14T05:39:41.223Z,99.90
2022-08-14T05:42:29.171Z,99.90
2022-08-14T05:45:20.057Z,99.90
2022-08-14T05:48:07.764Z,99.90
2022-08-14T05:50:56.427Z,99.90
2022-08-14T05:59:39.610Z,99.90
2022-08-14T06:02:26.205Z,99.90
2022-08-14T06:05:12.593Z,99.90
2022-08-14T06:07:59.676Z,99.90
2022-08-14T06:24:55.540Z,99.90
2022-08-14T06:27:44.680Z,99.90
2022-08-14T06:30:42.178Z,99.90
2022-08-14T06:35:10.213Z,99.90
2022-08-14T06:39:37.580Z,99.90
2022-08-14T06:42:32.419Z,99.90
2022-08-14T06:45:20.034Z,99.90
2022-08-14T06:51:04.320Z,99.90
2022-08-14T06:53:52.205Z,99.90
2022-08-14T06:56:38.646Z,99.90
2022-08-14T06:59:25.006Z,99.90
2022-08-14T07:02:29.906Z,99.90
2022-08-14T07:05:35.174Z,99.90
2022-08-14T07:08:29.570Z,99.90
2022-08-14T07:11:17.845Z,99.90
2022-08-14T07:14:06.169Z,99.90
2022-08-14T07:16:56.266Z,99.90
2022-08-14T07:19:42.473Z,99.90
2022-08-14T07:22:32.905Z,99.90
2022-08-14T07:25:38.013Z,99.90
2022-08-14T07:28:27.619Z,99.90
2022-08-14T07:31:16.390Z,99.90
2022-08-14T07:34:04.094Z,99.90
2022-08-14T07:36:57.949Z,99.90
2022-08-14T07:39:48.343Z,99.90
2022-08-14T07:42:38.417Z,99.90
2022-08-14T07:45:27.821Z,99.90
2022-08-14T07:48:19.456Z,99.90
2022-08-14T07:51:11.995Z,99.90
2022-08-14T07:53:58.942Z,99.90
2022-08-14T07:56:49.945Z,99.60
2022-08-14T07:59:41.180Z,99.30
2022-08-14T08:02:32.462Z,99.00
2022-08-14T08:05:20.366Z,98.30
2022-08-14T08:08:26.468Z,98.40
2022-08-14T08:11:15.137Z,98.60
2022-08-14T08:14:16.279Z,98.30
2022-08-14T08:17:04.614Z,98.40
2022-08-14T08:19:51.683Z,98.50
2022-08-14T08:22:38.653Z,98.00
2022-08-14T08:25:25.482Z,98.00
2022-08-14T08:28:19.844Z,97.60
2022-08-14T08:31:14.121Z,97.30
2022-08-14T08:34:05.338Z,97.60
2022-08-14T08:36:52.770Z,96.80
2022-08-14T08:40:02.334Z,96.50
2022-08-14T08:42:53.186Z,96.00
2022-08-14T08:45:41.491Z,96.20
2022-08-14T08:48:36.463Z,96.10
2022-08-14T08:51:33.426Z,96.20
2022-08-14T08:54:26.396Z,96.10
2022-08-14T08:57:15.683Z,95.40
2022-08-14T09:00:25.073Z,95.40
2022-08-14T09:06:53.529Z,99.90
2022-08-14T09:09:19.547Z,95.60
2022-08-14T09:12:07.191Z,95.80
2022-08-14T09:15:02.331Z,95.70
2022-08-14T09:17:49.058Z,95.90
2022-08-14T09:20:36.884Z,95.60
2022-08-14T09:23:34.555Z,95.00
2022-08-14T09:26:21.684Z,94.90
2022-08-14T09:29:11.761Z,95.20
2022-08-14T09:32:03.666Z,95.10
2022-08-14T09:35:18.009Z,95.20
2022-08-14T09:38:19.325Z,95.00
2022-08-14T09:42:17.413Z,95.40
2022-08-14T09:44:49.697Z,94.90
2022-08-14T09:47:45.262Z,94.90
2022-08-14T09:50:34.341Z,94.70
2022-08-14T09:54:18.102Z,95.00
2022-08-14T09:56:56.840Z,95.10
2022-08-14T09:59:47.555Z,95.50
2022-08-14T10:02:37.371Z,95.40
2022-08-14T10:05:34.971Z,95.20
2022-08-14T10:08:26.749Z,94.70
2022-08-14T10:11:19.478Z,94.90
2022-08-14T10:14:29.454Z,95.40
2022-08-14T10:17:26.762Z,95.20
2022-08-14T10:20:40.478Z,94.60
2022-08-14T10:23:23.565Z,94.00
2022-08-14T10:26:12.013Z,92.30
2022-08-14T10:29:19.697Z,92.30
2022-08-14T10:32:18.256Z,92.50
2022-08-14T10:35:17.059Z,92.60
2022-08-14T10:38:03.922Z,91.50
2022-08-14T10:40:59.407Z,91.50
2022-08-14T10:44:09.113Z,92.00
2022-08-14T10:47:40.512Z,91.70
2022-08-14T10:50:18.493Z,91.20
2022-08-14T10:53:05.504Z,91.50
2022-08-14T10:56:00.063Z,92.00
2022-08-14T10:58:50.308Z,92.10
2022-08-14T11:01:41.454Z,91.40
2022-08-14T11:04:30.870Z,90.40
2022-08-14T11:07:21.356Z,90.60
2022-08-14T11:10:10.979Z,91.00
2022-08-14T11:12:58.733Z,91.30
2022-08-14T11:15:46.589Z,91.50
2022-08-14T11:18:36.075Z,92.00
2022-08-14T11:21:30.057Z,92.00
2022-08-14T11:24:54.783Z,92.30
2022-08-14T11:27:33.240Z,91.80
2022-08-14T11:30:51.550Z,91.80
2022-08-14T11:33:32.700Z,92.10
2022-08-14T11:36:57.280Z,91.90
2022-08-14T11:39:36.714Z,92.20
2022-08-14T11:42:56.758Z,92.50
2022-08-14T11:45:37.421Z,92.60
2022-08-14T11:48:59.238Z,92.50
2022-08-14T11:51:47.474Z,92.60
2022-08-14T11:54:39.980Z,92.50
2022-08-14T11:57:30.402Z,92.40
2022-08-14T12:00:19.762Z,92.00
2022-08-14T12:03:06.720Z,91.80
2022-08-14T12:05:53.133Z,92.00
2022-08-14T12:08:49.758Z,91.80
2022-08-14T12:11:43.074Z,92.00
2022-08-14T12:14:35.113Z,91.80
2022-08-14T12:17:24.334Z,91.80
2022-08-14T12:20:11.661Z,91.60
2022-08-14T12:23:02.692Z,91.80
2022-08-14T12:26:39.415Z,91.80
2022-08-14T12:29:14.480Z,90.80
2022-08-14T12:32:08.844Z,90.50
2022-08-14T12:34:59.376Z,90.30
2022-08-14T12:37:53.099Z,90.20
2022-08-14T12:40:48.928Z,89.60
2022-08-14T12:43:46.522Z,89.40
2022-08-14T12:46:37.535Z,87.40
2022-08-14T12:49:25.938Z,88.00
2022-08-14T12:52:17.220Z,87.40
2022-08-14T12:55:07.807Z,88.00
2022-08-14T12:57:55.340Z,87.20
2022-08-14T13:01:14.441Z,86.90
2022-08-14T13:04:10.352Z,86.60
2022-08-14T13:07:04.427Z,86.20
2022-08-14T13:09:55.898Z,85.50
2022-08-14T13:13:11.622Z,85.80
2022-08-14T13:15:57.390Z,85.90
2022-08-14T13:18:46.977Z,85.00
2022-08-14T13:21:59.070Z,84.40
2022-08-14T13:24:42.536Z,84.00
2022-08-14T13:27:30.069Z,83.20
2022-08-14T13:30:23.705Z,82.90
2022-08-14T13:33:15.003Z,82.90
2022-08-14T13:36:05.146Z,82.10
2022-08-14T13:38:54.041Z,82.30
2022-08-14T13:41:40.851Z,82.40
2022-08-14T13:44:28.679Z,82.40
2022-08-14T13:47:15.960Z,82.70
2022-08-14T13:50:05.901Z,82.10
2022-08-14T13:52:55.037Z,81.90
2022-08-14T13:55:45.078Z,80.10
2022-08-14T13:58:38.905Z,80.30
2022-08-14T14:01:28.329Z,78.30
2022-08-14T14:04:19.165Z,79.10
2022-08-14T14:07:11.417Z,79.70
2022-08-14T14:10:01.613Z,79.50
2022-08-14T14:12:56.417Z,78.70
2022-08-14T14:15:58.579Z,79.60
2022-08-14T14:18:49.077Z,79.90
2022-08-14T14:21:40.453Z,80.50
2022-08-14T14:24:34.769Z,81.00
2022-08-14T14:27:40.441Z,80.70
2022-08-14T14:30:52.202Z,80.80
2022-08-14T14:33:47.474Z,81.00
2022-08-14T14:36:34.462Z,80.80
2022-08-14T14:39:25.395Z,80.50
2022-08-14T14:42:18.380Z,81.30
2022-08-14T14:45:22.076Z,82.10
2022-08-14T14:48:10.719Z,82.90
2022-08-14T14:51:01.360Z,82.00
2022-08-14T14:53:48.067Z,81.80
2022-08-14T14:56:47.402Z,81.90
2022-08-14T14:59:38.575Z,80.90
2022-08-14T15:02:34.380Z,81.10
2022-08-14T15:05:24.628Z,81.20
2022-08-14T15:08:17.156Z,79.70
2022-08-14T15:11:14.090Z,80.40
2022-08-14T15:14:02.393Z,78.40
2022-08-14T15:17:08.794Z,78.10
2022-08-14T15:19:57.326Z,76.80
2022-08-14T15:22:51.613Z,75.80
2022-08-14T15:25:38.454Z,75.90
2022-08-14T15:28:24.834Z,75.60
2022-08-14T15:31:12.753Z,75.90
2022-08-14T15:34:45.848Z,75.90
2022-08-14T15:37:23.164Z,75.20
2022-08-14T15:40:22.027Z,76.30
2022-08-14T15:43:12.962Z,78.50
2022-08-14T15:46:00.271Z,77.00
2022-08-14T15:48:47.690Z,77.50
2022-08-14T15:51:35.475Z,77.50
2022-08-14T15:54:31.599Z,76.50
2022-08-14T15:57:21.142Z,75.90
2022-08-14T16:00:43.658Z,76.40
2022-08-14T16:03:37.281Z,77.40
2022-08-14T16:06:30.301Z,77.10
2022-08-14T16:09:16.749Z,77.30
2022-08-14T16:12:06.017Z,77.60
2022-08-14T16:14:53.599Z,77.70
2022-08-14T16:17:43.912Z,77.90
2022-08-14T16:20:41.389Z,77.30
2022-08-14T16:23:36.105Z,77.20
2022-08-14T16:26:29.967Z,77.00
2022-08-14T16:29:20.181Z,92.30
2022-08-14T16:32:32.683Z,95.80
2022-08-14T16:35:20.334Z,94.10
2022-08-14T16:38:19.318Z,96.00
2022-08-14T16:41:22.274Z,96.80
2022-08-14T16:44:22.000Z,88.40
2022-08-14T16:47:22.627Z,98.40
2022-08-14T16:50:11.190Z,97.70
2022-08-14T16:53:00.847Z,98.50
2022-08-14T16:55:51.158Z,98.70
2022-08-14T17:01:29.052Z,98.90
2022-08-14T17:04:24.505Z,96.80
2022-08-14T17:07:13.358Z,96.70
2022-08-14T17:10:09.810Z,96.30
2022-08-14T17:13:17.579Z,96.30
2022-08-14T17:16:10.481Z,95.90
2022-08-14T17:19:14.139Z,95.90
2022-08-14T17:22:05.742Z,96.10
2022-08-14T17:25:03.340Z,96.20
2022-08-14T17:28:51.395Z,96.20
2022-08-14T17:31:17.099Z,96.00
2022-08-14T17:34:04.838Z,96.20
2022-08-14T17:36:54.397Z,95.10
2022-08-14T17:39:47.211Z,80.80
2022-08-14T17:42:55.495Z,80.80
2022-08-14T17:45:46.785Z,81.00
2022-08-14T17:49:14.904Z,81.10
2022-08-14T17:52:01.657Z,81.40
2022-08-14T17:54:58.845Z,81.90
2022-08-14T17:57:47.248Z,82.30
2022-08-14T18:00:38.295Z,82.70
2022-08-14T18:03:46.452Z,96.20
2022-08-14T18:06:57.762Z,96.50
2022-08-14T18:09:56.672Z,96.60
2022-08-14T18:12:46.601Z,96.60
2022-08-14T18:15:37.106Z,96.80
2022-08-14T18:18:24.602Z,96.90
2022-08-14T18:21:39.634Z,97.10
2022-08-14T18:24:29.863Z,97.20
2022-08-14T18:27:23.001Z,97.40
2022-08-14T18:30:31.881Z,97.80
2022-08-14T18:33:20.951Z,86.40
2022-08-14T18:36:48.022Z,86.80
2022-08-14T18:39:32.837Z,86.90
2022-08-14T18:42:46.582Z,87.60
2022-08-14T18:45:41.563Z,87.90
2022-08-14T18:48:50.128Z,88.00
2022-08-14T18:51:45.710Z,88.40
2022-08-14T18:54:38.250Z,88.70
2022-08-14T18:57:24.525Z,88.80
2022-08-14T19:00:51.338Z,89.20
2022-08-14T19:03:59.098Z,89.30
2022-08-14T19:06:55.711Z,89.60
2022-08-14T19:09:58.941Z,90.00
2022-08-14T19:13:12.962Z,90.00
2022-08-14T19:16:07.637Z,90.10
2022-08-14T19:19:03.065Z,90.20
2022-08-14T19:21:56.595Z,90.30
2022-08-14T19:24:44.092Z,90.50
2022-08-14T19:27:37.270Z,90.50
2022-08-14T19:30:25.468Z,90.70
2022-08-14T19:33:48.170Z,90.70
2022-08-14T19:37:04.381Z,91.00
2022-08-14T19:39:54.404Z,91.00
2022-08-14T19:42:46.714Z,91.10
2022-08-14T19:45:34.204Z,91.20
2022-08-14T19:48:20.534Z,91.30
2022-08-14T19:51:09.093Z,91.30
2022-08-14T19:54:06.350Z,91.40
2022-08-14T19:57:00.545Z,91.40
2022-08-14T19:59:57.997Z,91.60
2022-08-14T20:02:48.690Z,91.60
2022-08-14T20:05:43.062Z,91.60
2022-08-14T20:10:58.231Z,91.70
2022-08-14T20:12:01.552Z,91.80
2022-08-14T20:14:51.575Z,92.00
2022-08-14T20:17:52.218Z,92.00
2022-08-14T20:20:41.453Z,92.00
2022-08-14T20:23:38.569Z,92.10
2022-08-14T20:26:30.592Z,92.10
2022-08-14T20:29:31.209Z,92.20
2022-08-14T20:32:33.309Z,92.30
2022-08-14T20:35:35.336Z,92.40
2022-08-14T20:38:31.363Z,92.50
2022-08-14T20:41:21.520Z,92.50
2022-08-14T20:44:28.633Z,92.60
2022-08-14T20:47:17.047Z,92.70
2022-08-14T20:50:16.998Z,92.80
2022-08-14T20:53:27.457Z,92.80
2022-08-14T20:56:28.099Z,92.90
2022-08-14T20:59:18.082Z,93.00
2022-08-14T21:02:29.566Z,93.00
2022-08-14T21:05:19.642Z,93.10
2022-08-14T21:08:09.864Z,93.20
2022-08-14T21:11:14.250Z,93.30
2022-08-14T21:14:24.803Z,93.40
2022-08-14T21:17:14.430Z,93.60
2022-08-14T21:20:26.052Z,93.60
2022-08-14T21:23:12.267Z,93.80
2022-08-14T21:25:59.652Z,93.80
2022-08-14T21:28:47.070Z,94.00
2022-08-14T21:31:33.470Z,94.30
2022-08-14T21:34:30.884Z,94.50
2022-08-14T21:37:19.993Z,94.60
2022-08-14T21:40:31.677Z,94.70
2022-08-14T21:43:19.427Z,94.60
2022-08-14T21:46:06.219Z,94.70
2022-08-14T21:48:52.490Z,94.80
2022-08-14T21:51:54.577Z,94.80
2022-08-14T21:54:49.723Z,95.00
2022-08-14T21:58:03.784Z,95.00
2022-08-14T22:00:43.767Z,95.10
2022-08-14T22:03:35.560Z,95.20
2022-08-14T22:06:28.653Z,95.10
2022-08-14T22:09:16.644Z,95.00
2022-08-14T22:12:47.244Z,94.90
2022-08-14T22:15:22.905Z,95.00
2022-08-14T22:18:20.592Z,95.00
2022-08-14T22:21:08.271Z,95.00
2022-08-14T22:24:10.733Z,95.00
2022-08-14T22:27:01.213Z,95.10
2022-08-14T22:29:54.730Z,95.20
2022-08-14T22:32:57.069Z,95.30
2022-08-14T22:35:45.754Z,95.40
2022-08-14T22:38:35.723Z,95.50
2022-08-14T22:41:30.520Z,95.40
2022-08-14T22:44:23.158Z,95.60
2022-08-14T22:47:16.066Z,95.70
2022-08-14T22:50:32.975Z,95.80
2022-08-14T22:53:10.265Z,95.90
2022-08-14T22:55:56.733Z,96.00
2022-08-14T22:58:43.148Z,96.10
2022-08-14T23:01:56.515Z,96.30
2022-08-14T23:04:54.313Z,96.40
2022-08-14T23:09:00.326Z,96.50
2022-08-14T23:10:48.554Z,96.60
2022-08-14T23:13:38.955Z,96.80
2022-08-14T23:16:25.990Z,96.80
2022-08-14T23:19:12.870Z,96.90
2022-08-14T23:22:00.773Z,97.00
2022-08-14T23:24:48.410Z,97.10
2022-08-14T23:28:02.724Z,97.10
2022-08-14T23:30:42.657Z,97.10
2022-08-14T23:33:36.797Z,97.10
2022-08-14T23:36:53.706Z,97.10
2022-08-14T23:39:40.903Z,97.10
2022-08-14T23:42:39.767Z,97.20
2022-08-14T23:45:37.041Z,97.30
2022-08-14T23:48:28.312Z,97.30
2022-08-14T23:51:18.066Z,97.20
2022-08-14T23:54:48.494Z,97.30
2022-08-14T23:57:14.742Z,97.40
